sensor_id;sensor_type;location;lat;lon;timestamp;temperature;humidity
33139;DHT22;19501;50.948;5.316;2024-03-07T00:00:05;5.50;99.90
33139;DHT22;19501;50.948;5.316;2024-03-07T00:02:40;5.50;99.90
33139;DHT22;19501;50.948;5.316;2024-03-07T00:05:09;5.50;99.90
33139;DHT22;19501;50.948;5.316;2024-03-07T00:07:35;5.60;99.90
33139;DHT22;19501;50.948;5.316;2024-03-07T00:10:01;5.50;99.90
33139;DHT22;19501;50.948;5.316;2024-03-07T00:12:28;5.50;99.90
33139;DHT22;19501;50.948;5.316;2024-03-07T00:14:55;5.40;99.90
33139;DHT22;19501;50.948;5.316;2024-03-07T00:17:21;5.20;99.90
33139;DHT22;19501;50.948;5.316;2024-03-07T00:19:48;4.90;99.90
33139;DHT22;19501;50.948;5.316;2024-03-07T00:22:14;4.80;99.90
33139;DHT22;19501;50.948;5.316;2024-03-07T00:24:40;4.70;99.90
33139;DHT22;19501;50.948;5.316;2024-03-07T00:27:06;4.70;99.90
33139;DHT22;19501;50.948;5.316;2024-03-07T00:29:32;4.80;99.90
33139;DHT22;19501;50.948;5.316;2024-03-07T00:32:01;4.90;99.90
33139;DHT22;19501;50.948;5.316;2024-03-07T00:34:29;5.00;99.90
33139;DHT22;19501;50.948;5.316;2024-03-07T00:36:55;5.10;99.90
33139;DHT22;19501;50.948;5.316;2024-03-07T00:39:23;5.00;99.90
33139;DHT22;19501;50.948;5.316;2024-03-07T00:41:49;5.00;99.90
33139;DHT22;19501;50.948;5.316;2024-03-07T00:44:15;5.10;99.90
33139;DHT22;19501;50.948;5.316;2024-03-07T00:46:40;5.00;99.90
33139;DHT22;19501;50.948;5.316;2024-03-07T00:49:06;4.90;99.90
33139;DHT22;19501;50.948;5.316;2024-03-07T00:51:34;4.90;99.90
33139;DHT22;19501;50.948;5.316;2024-03-07T00:53:59;4.90;99.90
33139;DHT22;19501;50.948;5.316;2024-03-07T00:56:25;4.80;99.90
33139;DHT22;19501;50.948;5.316;2024-03-07T00:58:51;4.70;99.90
33139;DHT22;19501;50.948;5.316;2024-03-07T01:01:18;4.60;99.90
33139;DHT22;19501;50.948;5.316;2024-03-07T01:03:45;4.70;99.90
33139;DHT22;19501;50.948;5.316;2024-03-07T01:06:11;4.70;99.90
33139;DHT22;19501;50.948;5.316;2024-03-07T01:08:37;4.70;99.90
33139;DHT22;19501;50.948;5.316;2024-03-07T01:11:04;4.60;99.90
33139;DHT22;19501;50.948;5.316;2024-03-07T01:13:39;4.60;99.90
33139;DHT22;19501;50.948;5.316;2024-03-07T01:16:05;4.60;99.90
33139;DHT22;19501;50.948;5.316;2024-03-07T01:18:31;4.60;99.90
33139;DHT22;19501;50.948;5.316;2024-03-07T01:21:01;4.70;99.90
33139;DHT22;19501;50.948;5.316;2024-03-07T01:23:27;4.70;99.90
33139;DHT22;19501;50.948;5.316;2024-03-07T01:25:56;4.60;99.90
33139;DHT22;19501;50.948;5.316;2024-03-07T01:28:23;4.50;99.90
33139;DHT22;19501;50.948;5.316;2024-03-07T01:30:50;4.40;99.90
33139;DHT22;19501;50.948;5.316;2024-03-07T01:33:16;4.40;99.90
33139;DHT22;19501;50.948;5.316;2024-03-07T01:35:41;4.40;99.90
33139;DHT22;19501;50.948;5.316;2024-03-07T01:38:07;4.30;99.90
33139;DHT22;19501;50.948;5.316;2024-03-07T01:40:36;4.20;99.90
33139;DHT22;19501;50.948;5.316;2024-03-07T01:43:02;4.30;99.90
33139;DHT22;19501;50.948;5.316;2024-03-07T01:45:28;4.40;99.90
33139;DHT22;19501;50.948;5.316;2024-03-07T01:47:54;4.50;99.90
33139;DHT22;19501;50.948;5.316;2024-03-07T01:50:21;4.50;99.90
33139;DHT22;19501;50.948;5.316;2024-03-07T01:52:48;4.50;99.90
33139;DHT22;19501;50.948;5.316;2024-03-07T01:55:16;4.40;99.90
33139;DHT22;19501;50.948;5.316;2024-03-07T01:57:42;4.50;99.90
33139;DHT22;19501;50.948;5.316;2024-03-07T02:00:11;4.50;99.90
33139;DHT22;19501;50.948;5.316;2024-03-07T02:02:40;4.40;99.90
33139;DHT22;19501;50.948;5.316;2024-03-07T02:05:06;4.40;99.90
33139;DHT22;19501;50.948;5.316;2024-03-07T02:07:32;4.30;99.90
33139;DHT22;19501;50.948;5.316;2024-03-07T02:10:02;4.00;99.90
33139;DHT22;19501;50.948;5.316;2024-03-07T02:12:32;3.90;99.90
33139;DHT22;19501;50.948;5.316;2024-03-07T02:14:58;3.90;99.90
33139;DHT22;19501;50.948;5.316;2024-03-07T02:17:27;4.00;99.90
33139;DHT22;19501;50.948;5.316;2024-03-07T02:19:53;3.90;99.90
33139;DHT22;19501;50.948;5.316;2024-03-07T02:22:21;3.80;99.90
33139;DHT22;19501;50.948;5.316;2024-03-07T02:24:47;3.60;99.90
33139;DHT22;19501;50.948;5.316;2024-03-07T02:27:13;3.60;99.90
33139;DHT22;19501;50.948;5.316;2024-03-07T02:29:42;3.50;99.90
33139;DHT22;19501;50.948;5.316;2024-03-07T02:32:08;3.50;99.90
33139;DHT22;19501;50.948;5.316;2024-03-07T02:34:35;3.40;99.90
33139;DHT22;19501;50.948;5.316;2024-03-07T02:37:01;3.40;99.90
33139;DHT22;19501;50.948;5.316;2024-03-07T02:39:27;3.40;99.90
33139;DHT22;19501;50.948;5.316;2024-03-07T02:41:53;3.30;99.90
33139;DHT22;19501;50.948;5.316;2024-03-07T02:44:19;3.40;99.90
33139;DHT22;19501;50.948;5.316;2024-03-07T02:46:45;3.50;99.90
33139;DHT22;19501;50.948;5.316;2024-03-07T02:49:13;3.60;99.90
33139;DHT22;19501;50.948;5.316;2024-03-07T02:51:40;3.70;99.90
33139;DHT22;19501;50.948;5.316;2024-03-07T02:54:07;3.70;99.90
33139;DHT22;19501;50.948;5.316;2024-03-07T02:56:33;3.80;99.90
33139;DHT22;19501;50.948;5.316;2024-03-07T02:58:58;3.80;99.90
33139;DHT22;19501;50.948;5.316;2024-03-07T03:01:24;3.90;99.90
33139;DHT22;19501;50.948;5.316;2024-03-07T03:03:52;3.90;99.90
33139;DHT22;19501;50.948;5.316;2024-03-07T03:06:18;4.00;99.90
33139;DHT22;19501;50.948;5.316;2024-03-07T03:08:46;4.00;99.90
33139;DHT22;19501;50.948;5.316;2024-03-07T03:11:15;3.90;99.90
33139;DHT22;19501;50.948;5.316;2024-03-07T03:13:41;3.80;99.90
33139;DHT22;19501;50.948;5.316;2024-03-07T03:16:07;3.70;99.90
33139;DHT22;19501;50.948;5.316;2024-03-07T03:18:35;3.60;99.90
33139;DHT22;19501;50.948;5.316;2024-03-07T03:21:01;3.70;99.90
33139;DHT22;19501;50.948;5.316;2024-03-07T03:23:28;3.80;99.90
33139;DHT22;19501;50.948;5.316;2024-03-07T03:25:54;3.90;99.90
33139;DHT22;19501;50.948;5.316;2024-03-07T03:28:21;4.30;99.90
33139;DHT22;19501;50.948;5.316;2024-03-07T03:30:47;4.00;99.90
33139;DHT22;19501;50.948;5.316;2024-03-07T03:33:13;4.10;99.90
33139;DHT22;19501;50.948;5.316;2024-03-07T03:35:39;4.10;99.90
33139;DHT22;19501;50.948;5.316;2024-03-07T03:38:06;4.10;99.90
33139;DHT22;19501;50.948;5.316;2024-03-07T03:40:35;4.10;99.90
33139;DHT22;19501;50.948;5.316;2024-03-07T03:43:00;4.10;99.90
33139;DHT22;19501;50.948;5.316;2024-03-07T03:45:27;4.10;99.90
33139;DHT22;19501;50.948;5.316;2024-03-07T03:47:53;4.10;99.90
33139;DHT22;19501;50.948;5.316;2024-03-07T03:50:19;4.10;99.90
33139;DHT22;19501;50.948;5.316;2024-03-07T03:52:46;4.00;99.90
33139;DHT22;19501;50.948;5.316;2024-03-07T03:55:11;4.00;99.90
33139;DHT22;19501;50.948;5.316;2024-03-07T03:57:39;3.90;99.90
33139;DHT22;19501;50.948;5.316;2024-03-07T04:00:06;3.90;99.90
33139;DHT22;19501;50.948;5.316;2024-03-07T04:02:40;3.90;99.90
33139;DHT22;19501;50.948;5.316;2024-03-07T04:05:06;3.90;99.90
33139;DHT22;19501;50.948;5.316;2024-03-07T04:07:32;3.90;99.90
33139;DHT22;19501;50.948;5.316;2024-03-07T04:09:58;3.80;99.90
33139;DHT22;19501;50.948;5.316;2024-03-07T04:12:28;3.80;99.90
33139;DHT22;19501;50.948;5.316;2024-03-07T04:14:54;3.80;99.90
33139;DHT22;19501;50.948;5.316;2024-03-07T04:17:21;3.80;99.90
33139;DHT22;19501;50.948;5.316;2024-03-07T04:19:47;3.90;99.90
33139;DHT22;19501;50.948;5.316;2024-03-07T04:22:13;4.00;99.90
33139;DHT22;19501;50.948;5.316;2024-03-07T04:24:41;4.00;99.90
33139;DHT22;19501;50.948;5.316;2024-03-07T04:27:07;4.00;99.90
33139;DHT22;19501;50.948;5.316;2024-03-07T04:29:33;3.90;99.90
33139;DHT22;19501;50.948;5.316;2024-03-07T04:31:59;3.90;99.90
33139;DHT22;19501;50.948;5.316;2024-03-07T04:34:27;4.00;99.90
33139;DHT22;19501;50.948;5.316;2024-03-07T04:36:53;4.00;99.90
33139;DHT22;19501;50.948;5.316;2024-03-07T04:39:19;4.00;99.90
33139;DHT22;19501;50.948;5.316;2024-03-07T04:44:26;4.00;99.90
33139;DHT22;19501;50.948;5.316;2024-03-07T04:46:51;4.00;99.90
33139;DHT22;19501;50.948;5.316;2024-03-07T04:49:25;4.00;99.90
33139;DHT22;19501;50.948;5.316;2024-03-07T04:51:55;4.10;99.90
33139;DHT22;19501;50.948;5.316;2024-03-07T04:54:22;4.30;99.90
33139;DHT22;19501;50.948;5.316;2024-03-07T04:56:50;4.30;99.90
33139;DHT22;19501;50.948;5.316;2024-03-07T04:59:18;4.40;99.90
33139;DHT22;19501;50.948;5.316;2024-03-07T05:01:45;4.50;99.90
33139;DHT22;19501;50.948;5.316;2024-03-07T05:04:14;4.60;99.90
33139;DHT22;19501;50.948;5.316;2024-03-07T05:06:41;4.70;99.90
33139;DHT22;19501;50.948;5.316;2024-03-07T05:09:08;4.70;99.90
33139;DHT22;19501;50.948;5.316;2024-03-07T05:11:34;4.70;99.90
33139;DHT22;19501;50.948;5.316;2024-03-07T05:14:01;4.70;99.90
33139;DHT22;19501;50.948;5.316;2024-03-07T05:16:27;4.80;99.90
33139;DHT22;19501;50.948;5.316;2024-03-07T05:18:53;4.90;99.90
33139;DHT22;19501;50.948;5.316;2024-03-07T05:21:20;5.00;99.90
33139;DHT22;19501;50.948;5.316;2024-03-07T05:24:01;5.00;99.90
33139;DHT22;19501;50.948;5.316;2024-03-07T05:26:28;5.10;99.90
33139;DHT22;19501;50.948;5.316;2024-03-07T05:28:54;5.10;99.90
33139;DHT22;19501;50.948;5.316;2024-03-07T05:31:22;5.30;99.90
33139;DHT22;19501;50.948;5.316;2024-03-07T05:33:48;5.30;99.90
33139;DHT22;19501;50.948;5.316;2024-03-07T05:36:14;5.30;99.90
33139;DHT22;19501;50.948;5.316;2024-03-07T05:38:43;5.30;99.90
33139;DHT22;19501;50.948;5.316;2024-03-07T05:41:10;5.30;99.90
33139;DHT22;19501;50.948;5.316;2024-03-07T05:43:36;5.20;99.90
33139;DHT22;19501;50.948;5.316;2024-03-07T05:46:02;5.10;99.90
33139;DHT22;19501;50.948;5.316;2024-03-07T05:48:31;5.10;99.90
33139;DHT22;19501;50.948;5.316;2024-03-07T05:50:57;5.10;99.90
33139;DHT22;19501;50.948;5.316;2024-03-07T05:53:24;5.00;99.90
33139;DHT22;19501;50.948;5.316;2024-03-07T05:55:50;5.00;99.90
33139;DHT22;19501;50.948;5.316;2024-03-07T05:58:15;5.00;99.90
33139;DHT22;19501;50.948;5.316;2024-03-07T06:00:45;5.10;99.90
33139;DHT22;19501;50.948;5.316;2024-03-07T06:03:18;5.20;99.90
33139;DHT22;19501;50.948;5.316;2024-03-07T06:05:49;5.20;99.90
33139;DHT22;19501;50.948;5.316;2024-03-07T06:08:18;5.20;99.90
33139;DHT22;19501;50.948;5.316;2024-03-07T06:10:44;5.20;99.90
33139;DHT22;19501;50.948;5.316;2024-03-07T06:13:15;5.20;99.90
33139;DHT22;19501;50.948;5.316;2024-03-07T06:15:46;5.30;99.90
33139;DHT22;19501;50.948;5.316;2024-03-07T06:18:12;5.20;99.90
33139;DHT22;19501;50.948;5.316;2024-03-07T06:20:40;5.20;99.90
33139;DHT22;19501;50.948;5.316;2024-03-07T06:23:06;5.30;99.90
33139;DHT22;19501;50.948;5.316;2024-03-07T06:25:33;5.40;99.90
33139;DHT22;19501;50.948;5.316;2024-03-07T06:28:05;5.30;99.90
33139;DHT22;19501;50.948;5.316;2024-03-07T06:30:42;5.50;99.90
33139;DHT22;19501;50.948;5.316;2024-03-07T06:33:09;5.40;99.90
33139;DHT22;19501;50.948;5.316;2024-03-07T06:35:35;5.20;99.90
33139;DHT22;19501;50.948;5.316;2024-03-07T06:38:09;5.20;99.90
33139;DHT22;19501;50.948;5.316;2024-03-07T06:40:36;5.20;99.90
33139;DHT22;19501;50.948;5.316;2024-03-07T06:43:02;5.20;99.90
33139;DHT22;19501;50.948;5.316;2024-03-07T06:45:32;5.30;99.90
33139;DHT22;19501;50.948;5.316;2024-03-07T06:47:58;5.20;99.90
33139;DHT22;19501;50.948;5.316;2024-03-07T06:50:24;5.20;99.90
33139;DHT22;19501;50.948;5.316;2024-03-07T06:52:49;5.10;99.90
33139;DHT22;19501;50.948;5.316;2024-03-07T06:55:16;5.10;99.90
33139;DHT22;19501;50.948;5.316;2024-03-07T06:57:43;5.10;99.90
33139;DHT22;19501;50.948;5.316;2024-03-07T07:00:10;5.00;99.90
33139;DHT22;19501;50.948;5.316;2024-03-07T07:02:40;5.00;99.90
33139;DHT22;19501;50.948;5.316;2024-03-07T07:05:07;5.00;99.90
33139;DHT22;19501;50.948;5.316;2024-03-07T07:07:40;5.00;99.90
33139;DHT22;19501;50.948;5.316;2024-03-07T07:10:09;5.00;99.90
33139;DHT22;19501;50.948;5.316;2024-03-07T07:12:42;5.00;99.90
33139;DHT22;19501;50.948;5.316;2024-03-07T07:15:09;5.20;99.90
33139;DHT22;19501;50.948;5.316;2024-03-07T07:17:36;5.30;99.90
33139;DHT22;19501;50.948;5.316;2024-03-07T07:20:01;5.30;99.90
33139;DHT22;19501;50.948;5.316;2024-03-07T07:22:34;5.40;99.90
33139;DHT22;19501;50.948;5.316;2024-03-07T07:25:00;5.40;99.90
33139;DHT22;19501;50.948;5.316;2024-03-07T07:27:26;5.30;99.90
33139;DHT22;19501;50.948;5.316;2024-03-07T07:29:52;5.30;99.90
33139;DHT22;19501;50.948;5.316;2024-03-07T07:32:18;5.30;99.90
33139;DHT22;19501;50.948;5.316;2024-03-07T07:34:44;5.40;99.90
33139;DHT22;19501;50.948;5.316;2024-03-07T07:37:10;5.40;99.90
33139;DHT22;19501;50.948;5.316;2024-03-07T07:39:36;5.40;99.90
33139;DHT22;19501;50.948;5.316;2024-03-07T07:42:01;5.50;99.90
33139;DHT22;19501;50.948;5.316;2024-03-07T07:44:27;5.60;99.90
33139;DHT22;19501;50.948;5.316;2024-03-07T07:46:53;5.60;99.90
33139;DHT22;19501;50.948;5.316;2024-03-07T07:49:18;5.80;99.90
33139;DHT22;19501;50.948;5.316;2024-03-07T07:51:45;5.80;99.90
33139;DHT22;19501;50.948;5.316;2024-03-07T07:54:11;5.80;99.90
33139;DHT22;19501;50.948;5.316;2024-03-07T07:56:36;5.90;99.90
33139;DHT22;19501;50.948;5.316;2024-03-07T07:59:02;5.90;99.90
33139;DHT22;19501;50.948;5.316;2024-03-07T08:01:33;6.00;99.90
33139;DHT22;19501;50.948;5.316;2024-03-07T08:03:59;6.00;99.90
33139;DHT22;19501;50.948;5.316;2024-03-07T08:06:25;6.10;99.90
33139;DHT22;19501;50.948;5.316;2024-03-07T08:08:50;6.00;99.90
33139;DHT22;19501;50.948;5.316;2024-03-07T08:11:17;6.10;99.90
33139;DHT22;19501;50.948;5.316;2024-03-07T08:13:42;6.20;99.90
33139;DHT22;19501;50.948;5.316;2024-03-07T08:16:10;6.20;99.90
33139;DHT22;19501;50.948;5.316;2024-03-07T08:18:36;6.20;99.90
33139;DHT22;19501;50.948;5.316;2024-03-07T08:21:02;6.20;99.90
33139;DHT22;19501;50.948;5.316;2024-03-07T08:23:28;6.30;99.90
33139;DHT22;19501;50.948;5.316;2024-03-07T08:25:55;6.50;99.90
33139;DHT22;19501;50.948;5.316;2024-03-07T08:28:21;6.50;99.90
33139;DHT22;19501;50.948;5.316;2024-03-07T08:30:46;6.40;99.90
33139;DHT22;19501;50.948;5.316;2024-03-07T08:33:12;6.60;99.90
33139;DHT22;19501;50.948;5.316;2024-03-07T08:35:39;6.60;99.90
33139;DHT22;19501;50.948;5.316;2024-03-07T08:38:05;6.70;99.90
33139;DHT22;19501;50.948;5.316;2024-03-07T08:40:31;6.70;99.90
33139;DHT22;19501;50.948;5.316;2024-03-07T08:42:58;6.80;99.90
33139;DHT22;19501;50.948;5.316;2024-03-07T08:45:24;6.80;99.90
33139;DHT22;19501;50.948;5.316;2024-03-07T08:47:51;7.00;99.90
33139;DHT22;19501;50.948;5.316;2024-03-07T08:50:18;7.10;99.90
33139;DHT22;19501;50.948;5.316;2024-03-07T08:52:48;7.10;99.90
33139;DHT22;19501;50.948;5.316;2024-03-07T08:55:19;7.20;99.90
33139;DHT22;19501;50.948;5.316;2024-03-07T08:57:45;7.20;99.90
33139;DHT22;19501;50.948;5.316;2024-03-07T09:00:13;7.30;99.90
33139;DHT22;19501;50.948;5.316;2024-03-07T09:02:59;7.40;99.90
33139;DHT22;19501;50.948;5.316;2024-03-07T09:05:25;7.50;99.90
33139;DHT22;19501;50.948;5.316;2024-03-07T09:07:52;7.60;99.90
33139;DHT22;19501;50.948;5.316;2024-03-07T09:10:18;7.70;99.90
33139;DHT22;19501;50.948;5.316;2024-03-07T09:12:45;7.80;99.90
33139;DHT22;19501;50.948;5.316;2024-03-07T09:15:11;8.00;99.90
33139;DHT22;19501;50.948;5.316;2024-03-07T09:17:37;8.10;99.90
33139;DHT22;19501;50.948;5.316;2024-03-07T09:20:05;8.20;99.90
33139;DHT22;19501;50.948;5.316;2024-03-07T09:22:31;8.30;99.90
33139;DHT22;19501;50.948;5.316;2024-03-07T09:24:58;8.30;99.90
33139;DHT22;19501;50.948;5.316;2024-03-07T09:27:26;8.30;99.90
33139;DHT22;19501;50.948;5.316;2024-03-07T09:29:52;8.30;99.90
33139;DHT22;19501;50.948;5.316;2024-03-07T09:32:18;8.40;99.90
33139;DHT22;19501;50.948;5.316;2024-03-07T09:34:44;8.50;99.90
33139;DHT22;19501;50.948;5.316;2024-03-07T09:37:09;8.60;99.90
33139;DHT22;19501;50.948;5.316;2024-03-07T09:39:35;8.70;99.90
33139;DHT22;19501;50.948;5.316;2024-03-07T09:42:10;8.90;99.90
33139;DHT22;19501;50.948;5.316;2024-03-07T09:44:40;8.90;99.90
33139;DHT22;19501;50.948;5.316;2024-03-07T09:47:07;9.00;99.90
33139;DHT22;19501;50.948;5.316;2024-03-07T09:49:35;9.10;99.90
33139;DHT22;19501;50.948;5.316;2024-03-07T09:52:04;9.10;99.90
33139;DHT22;19501;50.948;5.316;2024-03-07T09:54:36;9.20;99.90
33139;DHT22;19501;50.948;5.316;2024-03-07T09:57:05;9.40;99.90
33139;DHT22;19501;50.948;5.316;2024-03-07T09:59:37;9.70;99.90
33139;DHT22;19501;50.948;5.316;2024-03-07T10:02:06;9.90;99.90
33139;DHT22;19501;50.948;5.316;2024-03-07T10:07:01;10.10;99.90
33139;DHT22;19501;50.948;5.316;2024-03-07T10:09:30;10.40;99.90
33139;DHT22;19501;50.948;5.316;2024-03-07T10:12:01;10.50;99.90
33139;DHT22;19501;50.948;5.316;2024-03-07T10:14:32;10.30;99.90
33139;DHT22;19501;50.948;5.316;2024-03-07T10:16:58;10.30;99.90
33139;DHT22;19501;50.948;5.316;2024-03-07T10:19:24;10.20;99.90
33139;DHT22;19501;50.948;5.316;2024-03-07T10:21:50;10.30;99.90
33139;DHT22;19501;50.948;5.316;2024-03-07T10:24:17;10.50;99.90
33139;DHT22;19501;50.948;5.316;2024-03-07T10:26:49;10.70;99.90
33139;DHT22;19501;50.948;5.316;2024-03-07T10:29:17;10.80;99.90
33139;DHT22;19501;50.948;5.316;2024-03-07T10:31:44;11.00;99.90
33139;DHT22;19501;50.948;5.316;2024-03-07T10:34:11;11.00;99.90
33139;DHT22;19501;50.948;5.316;2024-03-07T10:36:37;11.00;99.90
33139;DHT22;19501;50.948;5.316;2024-03-07T10:39:03;11.10;99.90
33139;DHT22;19501;50.948;5.316;2024-03-07T10:41:49;11.00;99.90
33139;DHT22;19501;50.948;5.316;2024-03-07T10:44:20;10.90;99.90
33139;DHT22;19501;50.948;5.316;2024-03-07T10:46:56;11.00;99.90
33139;DHT22;19501;50.948;5.316;2024-03-07T10:49:26;11.20;99.90
33139;DHT22;19501;50.948;5.316;2024-03-07T10:52:07;11.50;99.90
33139;DHT22;19501;50.948;5.316;2024-03-07T10:54:48;11.50;99.90
33139;DHT22;19501;50.948;5.316;2024-03-07T11:00:00;11.70;99.90
33139;DHT22;19501;50.948;5.316;2024-03-07T11:02:46;11.60;99.90
33139;DHT22;19501;50.948;5.316;2024-03-07T11:05:13;11.90;99.90
33139;DHT22;19501;50.948;5.316;2024-03-07T11:07:41;12.30;99.90
33139;DHT22;19501;50.948;5.316;2024-03-07T11:10:07;12.70;99.90
33139;DHT22;19501;50.948;5.316;2024-03-07T11:12:38;12.60;99.90
33139;DHT22;19501;50.948;5.316;2024-03-07T11:15:08;12.90;99.90
33139;DHT22;19501;50.948;5.316;2024-03-07T11:17:42;12.90;99.90
33139;DHT22;19501;50.948;5.316;2024-03-07T11:22:45;13.20;99.90
33139;DHT22;19501;50.948;5.316;2024-03-07T11:25:11;13.20;99.90
33139;DHT22;19501;50.948;5.316;2024-03-07T11:27:37;13.20;99.90
33139;DHT22;19501;50.948;5.316;2024-03-07T11:30:09;13.00;99.90
33139;DHT22;19501;50.948;5.316;2024-03-07T11:32:38;12.90;99.90
33139;DHT22;19501;50.948;5.316;2024-03-07T11:35:05;12.60;99.90
33139;DHT22;19501;50.948;5.316;2024-03-07T11:37:43;12.80;99.90
33139;DHT22;19501;50.948;5.316;2024-03-07T11:40:12;13.10;99.90
33139;DHT22;19501;50.948;5.316;2024-03-07T11:42:47;13.80;99.90
33139;DHT22;19501;50.948;5.316;2024-03-07T11:45:14;14.70;99.90
33139;DHT22;19501;50.948;5.316;2024-03-07T11:47:53;15.20;99.90
33139;DHT22;19501;50.948;5.316;2024-03-07T11:50:25;15.30;99.90
33139;DHT22;19501;50.948;5.316;2024-03-07T11:52:55;14.90;99.90
33139;DHT22;19501;50.948;5.316;2024-03-07T11:55:24;15.20;99.90
33139;DHT22;19501;50.948;5.316;2024-03-07T11:57:50;16.30;99.90
33139;DHT22;19501;50.948;5.316;2024-03-07T12:00:18;17.10;99.90
33139;DHT22;19501;50.948;5.316;2024-03-07T12:02:44;16.90;99.90
33139;DHT22;19501;50.948;5.316;2024-03-07T12:05:10;16.10;99.90
33139;DHT22;19501;50.948;5.316;2024-03-07T12:07:36;15.20;99.90
33139;DHT22;19501;50.948;5.316;2024-03-07T12:10:03;14.70;99.90
33139;DHT22;19501;50.948;5.316;2024-03-07T12:12:30;14.90;99.90
33139;DHT22;19501;50.948;5.316;2024-03-07T12:14:58;15.60;99.90
33139;DHT22;19501;50.948;5.316;2024-03-07T12:17:25;15.30;99.90
33139;DHT22;19501;50.948;5.316;2024-03-07T12:19:51;14.30;99.90
33139;DHT22;19501;50.948;5.316;2024-03-07T12:22:20;14.20;99.90
33139;DHT22;19501;50.948;5.316;2024-03-07T12:24:59;13.70;99.90
33139;DHT22;19501;50.948;5.316;2024-03-07T12:27:28;13.50;99.90
33139;DHT22;19501;50.948;5.316;2024-03-07T12:29:54;13.80;99.90
33139;DHT22;19501;50.948;5.316;2024-03-07T12:32:20;14.40;99.90
33139;DHT22;19501;50.948;5.316;2024-03-07T12:34:46;14.50;99.90
33139;DHT22;19501;50.948;5.316;2024-03-07T12:37:14;15.70;99.90
33139;DHT22;19501;50.948;5.316;2024-03-07T12:39:42;16.40;99.90
33139;DHT22;19501;50.948;5.316;2024-03-07T12:42:24;17.10;99.90
33139;DHT22;19501;50.948;5.316;2024-03-07T12:44:50;18.10;99.90
33139;DHT22;19501;50.948;5.316;2024-03-07T12:47:17;19.30;99.90
33139;DHT22;19501;50.948;5.316;2024-03-07T12:49:44;19.50;99.90
33139;DHT22;19501;50.948;5.316;2024-03-07T12:52:10;19.90;99.90
33139;DHT22;19501;50.948;5.316;2024-03-07T12:54:39;20.30;99.90
33139;DHT22;19501;50.948;5.316;2024-03-07T12:57:08;20.50;99.50
33139;DHT22;19501;50.948;5.316;2024-03-07T12:59:41;19.90;99.40
33139;DHT22;19501;50.948;5.316;2024-03-07T13:02:09;19.90;99.40
33139;DHT22;19501;50.948;5.316;2024-03-07T13:04:36;19.90;98.80
33139;DHT22;19501;50.948;5.316;2024-03-07T13:07:05;20.20;98.80
33139;DHT22;19501;50.948;5.316;2024-03-07T13:09:34;20.70;98.00
33139;DHT22;19501;50.948;5.316;2024-03-07T13:12:00;20.20;97.80
33139;DHT22;19501;50.948;5.316;2024-03-07T13:14:32;20.80;97.80
33139;DHT22;19501;50.948;5.316;2024-03-07T13:17:05;21.10;97.40
33139;DHT22;19501;50.948;5.316;2024-03-07T13:19:32;21.50;97.00
33139;DHT22;19501;50.948;5.316;2024-03-07T13:21:58;20.00;98.00
33139;DHT22;19501;50.948;5.316;2024-03-07T13:24:25;19.80;98.30
33139;DHT22;19501;50.948;5.316;2024-03-07T13:26:52;19.10;98.00
33139;DHT22;19501;50.948;5.316;2024-03-07T13:29:19;20.30;97.20
33139;DHT22;19501;50.948;5.316;2024-03-07T13:31:51;19.80;96.40
33139;DHT22;19501;50.948;5.316;2024-03-07T13:34:17;19.50;96.40
33139;DHT22;19501;50.948;5.316;2024-03-07T13:36:44;19.90;96.50
33139;DHT22;19501;50.948;5.316;2024-03-07T13:39:13;19.80;97.00
33139;DHT22;19501;50.948;5.316;2024-03-07T13:41:42;20.10;96.40
33139;DHT22;19501;50.948;5.316;2024-03-07T13:44:08;20.30;96.00
33139;DHT22;19501;50.948;5.316;2024-03-07T13:46:34;20.70;96.20
33139;DHT22;19501;50.948;5.316;2024-03-07T13:49:00;20.50;96.20
33139;DHT22;19501;50.948;5.316;2024-03-07T13:51:37;20.70;95.60
33139;DHT22;19501;50.948;5.316;2024-03-07T13:54:05;21.30;95.60
33139;DHT22;19501;50.948;5.316;2024-03-07T13:56:51;21.60;95.40
33139;DHT22;19501;50.948;5.316;2024-03-07T14:02:36;22.60;94.10
33139;DHT22;19501;50.948;5.316;2024-03-07T14:05:52;22.70;93.10
33139;DHT22;19501;50.948;5.316;2024-03-07T14:25:38;21.90;92.80
33139;DHT22;19501;50.948;5.316;2024-03-07T14:31:06;20.90;92.50
33139;DHT22;19501;50.948;5.316;2024-03-07T14:36:47;20.20;93.00
33139;DHT22;19501;50.948;5.316;2024-03-07T14:39:15;19.60;93.30
33139;DHT22;19501;50.948;5.316;2024-03-07T14:41:58;19.30;93.80
33139;DHT22;19501;50.948;5.316;2024-03-07T14:44:24;19.70;93.90
33139;DHT22;19501;50.948;5.316;2024-03-07T14:47:02;19.70;93.80
33139;DHT22;19501;50.948;5.316;2024-03-07T14:49:31;19.30;94.20
33139;DHT22;19501;50.948;5.316;2024-03-07T14:51:57;18.80;94.40
33139;DHT22;19501;50.948;5.316;2024-03-07T14:54:23;19.00;94.40
33139;DHT22;19501;50.948;5.316;2024-03-07T14:56:49;18.80;94.20
33139;DHT22;19501;50.948;5.316;2024-03-07T14:59:15;18.80;94.50
33139;DHT22;19501;50.948;5.316;2024-03-07T15:01:41;18.80;94.30
33139;DHT22;19501;50.948;5.316;2024-03-07T15:04:08;19.00;94.00
33139;DHT22;19501;50.948;5.316;2024-03-07T15:06:38;18.70;94.20
33139;DHT22;19501;50.948;5.316;2024-03-07T15:09:06;18.50;94.50
33139;DHT22;19501;50.948;5.316;2024-03-07T15:11:39;18.20;94.80
33139;DHT22;19501;50.948;5.316;2024-03-07T15:14:06;18.00;94.80
33139;DHT22;19501;50.948;5.316;2024-03-07T15:16:34;17.90;94.60
33139;DHT22;19501;50.948;5.316;2024-03-07T15:19:04;17.80;94.60
33139;DHT22;19501;50.948;5.316;2024-03-07T15:21:29;17.10;94.80
33139;DHT22;19501;50.948;5.316;2024-03-07T15:23:56;17.00;95.30
33139;DHT22;19501;50.948;5.316;2024-03-07T15:26:22;17.30;95.30
33139;DHT22;19501;50.948;5.316;2024-03-07T15:28:50;17.30;95.20
33139;DHT22;19501;50.948;5.316;2024-03-07T15:31:16;17.20;95.60
33139;DHT22;19501;50.948;5.316;2024-03-07T15:33:48;17.20;95.50
33139;DHT22;19501;50.948;5.316;2024-03-07T15:36:19;16.90;95.70
33139;DHT22;19501;50.948;5.316;2024-03-07T15:38:47;16.90;96.30
33139;DHT22;19501;50.948;5.316;2024-03-07T15:41:13;17.00;96.30
33139;DHT22;19501;50.948;5.316;2024-03-07T15:43:39;17.00;96.20
33139;DHT22;19501;50.948;5.316;2024-03-07T15:46:08;17.00;96.60
33139;DHT22;19501;50.948;5.316;2024-03-07T15:48:37;17.10;96.90
33139;DHT22;19501;50.948;5.316;2024-03-07T15:51:03;16.70;97.00
33139;DHT22;19501;50.948;5.316;2024-03-07T15:53:30;16.80;97.30
33139;DHT22;19501;50.948;5.316;2024-03-07T15:56:02;16.50;97.20
33139;DHT22;19501;50.948;5.316;2024-03-07T15:58:28;15.80;97.60
33139;DHT22;19501;50.948;5.316;2024-03-07T16:00:54;15.60;97.80
33139;DHT22;19501;50.948;5.316;2024-03-07T16:03:21;15.50;97.90
33139;DHT22;19501;50.948;5.316;2024-03-07T16:05:48;15.60;98.10
33139;DHT22;19501;50.948;5.316;2024-03-07T16:08:15;15.50;98.00
33139;DHT22;19501;50.948;5.316;2024-03-07T16:10:44;15.70;98.10
33139;DHT22;19501;50.948;5.316;2024-03-07T16:13:13;15.20;98.20
33139;DHT22;19501;50.948;5.316;2024-03-07T16:15:44;14.80;98.30
33139;DHT22;19501;50.948;5.316;2024-03-07T16:18:11;14.60;98.90
33139;DHT22;19501;50.948;5.316;2024-03-07T16:20:37;14.40;98.90